sensor_id;sensor_type;location;lat;lon;timestamp;temperature;humidity
55329;DHT22;41205;44.264;19.884;2024-02-16T00:00:24;128.70;2252.80
55329;DHT22;41205;44.264;19.884;2024-02-16T00:02:50;128.70;2252.80
55329;DHT22;41205;44.264;19.884;2024-02-16T00:05:16;128.70;2252.80
55329;DHT22;41205;44.264;19.884;2024-02-16T00:07:42;128.80;2252.80
55329;DHT22;41205;44.264;19.884;2024-02-16T00:10:09;128.80;2252.80
55329;DHT22;41205;44.264;19.884;2024-02-16T00:12:35;128.80;2252.80
55329;DHT22;41205;44.264;19.884;2024-02-16T00:15:03;128.90;2252.80
55329;DHT22;41205;44.264;19.884;2024-02-16T00:17:29;128.80;2252.80
55329;DHT22;41205;44.264;19.884;2024-02-16T00:19:56;128.60;2252.80
55329;DHT22;41205;44.264;19.884;2024-02-16T00:22:22;128.40;2252.80
55329;DHT22;41205;44.264;19.884;2024-02-16T00:24:48;128.20;2252.80
55329;DHT22;41205;44.264;19.884;2024-02-16T00:27:15;103.30;2227.20
55329;DHT22;41205;44.264;19.884;2024-02-16T00:29:41;128.00;2252.80
55329;DHT22;41205;44.264;19.884;2024-02-16T00:32:07;128.00;2252.80
55329;DHT22;41205;44.264;19.884;2024-02-16T00:34:35;103.30;2227.20
55329;DHT22;41205;44.264;19.884;2024-02-16T00:37:01;128.00;2252.80
55329;DHT22;41205;44.264;19.884;2024-02-16T00:39:27;128.00;2252.80
55329;DHT22;41205;44.264;19.884;2024-02-16T00:41:53;103.30;2227.20
55329;DHT22;41205;44.264;19.884;2024-02-16T00:44:19;128.00;2252.80
55329;DHT22;41205;44.264;19.884;2024-02-16T00:46:45;128.00;2252.80
55329;DHT22;41205;44.264;19.884;2024-02-16T00:49:10;128.00;2252.80
55329;DHT22;41205;44.264;19.884;2024-02-16T00:51:37;128.10;2252.80
55329;DHT22;41205;44.264;19.884;2024-02-16T00:54:03;128.10;2252.80
55329;DHT22;41205;44.264;19.884;2024-02-16T00:56:32;128.10;2252.80
55329;DHT22;41205;44.264;19.884;2024-02-16T00:58:58;128.10;2252.80
55329;DHT22;41205;44.264;19.884;2024-02-16T01:01:24;128.10;2252.80
55329;DHT22;41205;44.264;19.884;2024-02-16T01:03:52;128.10;2252.80
55329;DHT22;41205;44.264;19.884;2024-02-16T01:06:19;128.00;2252.80
55329;DHT22;41205;44.264;19.884;2024-02-16T01:08:45;128.10;2252.80
55329;DHT22;41205;44.264;19.884;2024-02-16T01:11:12;128.10;2252.80
55329;DHT22;41205;44.264;19.884;2024-02-16T01:13:39;128.10;2252.80
55329;DHT22;41205;44.264;19.884;2024-02-16T01:16:06;128.00;2252.80
55329;DHT22;41205;44.264;19.884;2024-02-16T01:18:32;103.30;2227.20
55329;DHT22;41205;44.264;19.884;2024-02-16T01:20:58;103.30;2227.20
55329;DHT22;41205;44.264;19.884;2024-02-16T01:23:24;103.20;2227.20
55329;DHT22;41205;44.264;19.884;2024-02-16T01:25:50;103.10;2227.20
55329;DHT22;41205;44.264;19.884;2024-02-16T01:28:16;103.30;2227.20
55329;DHT22;41205;44.264;19.884;2024-02-16T01:30:42;103.20;2227.20
55329;DHT22;41205;44.264;19.884;2024-02-16T01:33:08;103.30;2227.20
55329;DHT22;41205;44.264;19.884;2024-02-16T01:35:34;103.30;2227.20
55329;DHT22;41205;44.264;19.884;2024-02-16T01:38:00;103.30;2227.20
55329;DHT22;41205;44.264;19.884;2024-02-16T01:40:27;103.30;2227.20
55329;DHT22;41205;44.264;19.884;2024-02-16T01:42:53;103.30;2227.20
55329;DHT22;41205;44.264;19.884;2024-02-16T01:45:19;103.30;2227.20
55329;DHT22;41205;44.264;19.884;2024-02-16T01:47:47;103.30;2227.20
55329;DHT22;41205;44.264;19.884;2024-02-16T01:50:15;103.30;2227.20
55329;DHT22;41205;44.264;19.884;2024-02-16T01:52:45;103.30;2227.20
55329;DHT22;41205;44.264;19.884;2024-02-16T01:55:12;103.30;2227.20
55329;DHT22;41205;44.264;19.884;2024-02-16T01:57:43;103.30;2227.20
55329;DHT22;41205;44.264;19.884;2024-02-16T02:00:09;103.30;2227.20
55329;DHT22;41205;44.264;19.884;2024-02-16T02:02:38;103.30;2227.20
55329;DHT22;41205;44.264;19.884;2024-02-16T02:05:04;103.30;2227.20
55329;DHT22;41205;44.264;19.884;2024-02-16T02:07:30;103.30;2227.20
55329;DHT22;41205;44.264;19.884;2024-02-16T02:09:56;103.20;2227.20
55329;DHT22;41205;44.264;19.884;2024-02-16T02:12:22;103.30;2227.20
55329;DHT22;41205;44.264;19.884;2024-02-16T02:14:49;103.20;2227.20
55329;DHT22;41205;44.264;19.884;2024-02-16T02:17:16;103.20;2227.20
55329;DHT22;41205;44.264;19.884;2024-02-16T02:19:42;103.10;2227.20
55329;DHT22;41205;44.264;19.884;2024-02-16T02:22:26;103.00;2227.20
55329;DHT22;41205;44.264;19.884;2024-02-16T02:24:53;103.00;2227.20
55329;DHT22;41205;44.264;19.884;2024-02-16T02:27:21;103.00;2227.20
55329;DHT22;41205;44.264;19.884;2024-02-16T02:29:47;102.80;2227.20
55329;DHT22;41205;44.264;19.884;2024-02-16T02:32:13;102.80;2227.20
55329;DHT22;41205;44.264;19.884;2024-02-16T02:34:39;102.70;2227.20
55329;DHT22;41205;44.264;19.884;2024-02-16T02:37:05;102.70;2227.20
55329;DHT22;41205;44.264;19.884;2024-02-16T02:39:32;102.70;2227.20
55329;DHT22;41205;44.264;19.884;2024-02-16T02:41:58;102.80;2227.20
55329;DHT22;41205;44.264;19.884;2024-02-16T02:44:24;102.80;2227.20
55329;DHT22;41205;44.264;19.884;2024-02-16T02:46:51;102.80;2227.20
55329;DHT22;41205;44.264;19.884;2024-02-16T02:49:17;102.80;2227.20
55329;DHT22;41205;44.264;19.884;2024-02-16T02:51:43;102.90;2227.20
55329;DHT22;41205;44.264;19.884;2024-02-16T02:54:09;102.90;2227.20
55329;DHT22;41205;44.264;19.884;2024-02-16T02:56:35;103.00;2227.20
55329;DHT22;41205;44.264;19.884;2024-02-16T02:59:01;103.00;2227.20
55329;DHT22;41205;44.264;19.884;2024-02-16T03:01:26;103.00;2227.20
55329;DHT22;41205;44.264;19.884;2024-02-16T03:03:52;103.00;2227.20
55329;DHT22;41205;44.264;19.884;2024-02-16T03:06:21;102.90;2227.20
55329;DHT22;41205;44.264;19.884;2024-02-16T03:08:48;102.80;2227.20
55329;DHT22;41205;44.264;19.884;2024-02-16T03:11:14;102.70;2227.20
55329;DHT22;41205;44.264;19.884;2024-02-16T03:13:40;102.70;2227.20
55329;DHT22;41205;44.264;19.884;2024-02-16T03:16:06;102.60;2227.20
55329;DHT22;41205;44.264;19.884;2024-02-16T03:18:33;102.50;2227.20
55329;DHT22;41205;44.264;19.884;2024-02-16T03:21:00;102.40;2227.20
55329;DHT22;41205;44.264;19.884;2024-02-16T03:23:26;102.40;2227.20
55329;DHT22;41205;44.264;19.884;2024-02-16T03:25:51;77.70;2227.20
55329;DHT22;41205;44.264;19.884;2024-02-16T03:28:17;102.50;2227.20
55329;DHT22;41205;44.264;19.884;2024-02-16T03:30:44;102.60;2227.20
55329;DHT22;41205;44.264;19.884;2024-02-16T03:33:10;102.60;2227.20
55329;DHT22;41205;44.264;19.884;2024-02-16T03:35:36;102.70;2227.20
55329;DHT22;41205;44.264;19.884;2024-02-16T03:38:03;102.50;2227.20
55329;DHT22;41205;44.264;19.884;2024-02-16T03:40:29;102.60;2227.20
55329;DHT22;41205;44.264;19.884;2024-02-16T03:42:55;102.60;2227.20
55329;DHT22;41205;44.264;19.884;2024-02-16T03:45:21;102.60;2227.20
55329;DHT22;41205;44.264;19.884;2024-02-16T03:47:47;102.50;2227.20
55329;DHT22;41205;44.264;19.884;2024-02-16T03:50:14;77.70;2227.20
55329;DHT22;41205;44.264;19.884;2024-02-16T03:52:40;77.60;2227.20
55329;DHT22;41205;44.264;19.884;2024-02-16T03:55:07;77.60;2227.20
55329;DHT22;41205;44.264;19.884;2024-02-16T03:57:33;77.50;2227.20
55329;DHT22;41205;44.264;19.884;2024-02-16T03:59:59;77.40;2227.20
55329;DHT22;41205;44.264;19.884;2024-02-16T04:02:24;77.10;2227.20
55329;DHT22;41205;44.264;19.884;2024-02-16T04:04:51;76.90;2227.20
55329;DHT22;41205;44.264;19.884;2024-02-16T04:07:17;77.20;2227.20
55329;DHT22;41205;44.264;19.884;2024-02-16T04:09:43;77.30;2227.20
55329;DHT22;41205;44.264;19.884;2024-02-16T04:12:08;77.40;2227.20
55329;DHT22;41205;44.264;19.884;2024-02-16T04:14:35;77.50;2227.20
55329;DHT22;41205;44.264;19.884;2024-02-16T04:17:01;77.60;2227.20
55329;DHT22;41205;44.264;19.884;2024-02-16T04:19:27;77.70;2227.20
55329;DHT22;41205;44.264;19.884;2024-02-16T04:21:53;77.70;2227.20
55329;DHT22;41205;44.264;19.884;2024-02-16T04:24:19;77.70;2227.20
55329;DHT22;41205;44.264;19.884;2024-02-16T04:26:45;77.60;2227.20
55329;DHT22;41205;44.264;19.884;2024-02-16T04:29:10;77.50;2227.20
55329;DHT22;41205;44.264;19.884;2024-02-16T04:31:40;77.50;2227.20
55329;DHT22;41205;44.264;19.884;2024-02-16T04:34:08;77.40;2227.20
55329;DHT22;41205;44.264;19.884;2024-02-16T04:36:34;77.40;2227.20
55329;DHT22;41205;44.264;19.884;2024-02-16T04:39:00;77.40;2227.20
55329;DHT22;41205;44.264;19.884;2024-02-16T04:41:27;77.40;2227.20
55329;DHT22;41205;44.264;19.884;2024-02-16T04:43:54;77.40;2227.20
55329;DHT22;41205;44.264;19.884;2024-02-16T04:46:20;77.40;2227.20
55329;DHT22;41205;44.264;19.884;2024-02-16T04:48:46;77.50;2227.20
55329;DHT22;41205;44.264;19.884;2024-02-16T04:51:12;77.50;2227.20
55329;DHT22;41205;44.264;19.884;2024-02-16T04:53:38;77.50;2227.20
55329;DHT22;41205;44.264;19.884;2024-02-16T04:56:04;77.40;2227.20
55329;DHT22;41205;44.264;19.884;2024-02-16T04:58:31;77.50;2227.20
55329;DHT22;41205;44.264;19.884;2024-02-16T05:00:57;77.40;2227.20
55329;DHT22;41205;44.264;19.884;2024-02-16T05:03:23;77.50;2227.20
55329;DHT22;41205;44.264;19.884;2024-02-16T05:05:48;77.60;2227.20
55329;DHT22;41205;44.264;19.884;2024-02-16T05:08:14;77.60;2227.20
55329;DHT22;41205;44.264;19.884;2024-02-16T05:10:40;77.60;2227.20
55329;DHT22;41205;44.264;19.884;2024-02-16T05:13:06;77.50;2227.20
55329;DHT22;41205;44.264;19.884;2024-02-16T05:15:32;77.50;2227.20
55329;DHT22;41205;44.264;19.884;2024-02-16T05:17:58;77.40;2227.20
55329;DHT22;41205;44.264;19.884;2024-02-16T05:20:24;77.40;2227.20
55329;DHT22;41205;44.264;19.884;2024-02-16T05:22:50;77.40;2227.20
55329;DHT22;41205;44.264;19.884;2024-02-16T05:25:17;77.40;2227.20
55329;DHT22;41205;44.264;19.884;2024-02-16T05:27:45;77.40;2227.20
55329;DHT22;41205;44.264;19.884;2024-02-16T05:30:13;77.40;2227.20
55329;DHT22;41205;44.264;19.884;2024-02-16T05:32:41;77.40;2227.20
55329;DHT22;41205;44.264;19.884;2024-02-16T05:35:08;77.40;2227.20
55329;DHT22;41205;44.264;19.884;2024-02-16T05:37:44;77.40;2227.20
55329;DHT22;41205;44.264;19.884;2024-02-16T05:40:11;77.40;2227.20
55329;DHT22;41205;44.264;19.884;2024-02-16T05:42:57;77.40;2227.20
55329;DHT22;41205;44.264;19.884;2024-02-16T05:45:26;77.20;2227.20
55329;DHT22;41205;44.264;19.884;2024-02-16T05:47:52;77.30;2227.20
55329;DHT22;41205;44.264;19.884;2024-02-16T05:50:20;77.40;2227.20
55329;DHT22;41205;44.264;19.884;2024-02-16T05:52:46;77.40;2227.20
55329;DHT22;41205;44.264;19.884;2024-02-16T05:55:12;77.40;2227.20
55329;DHT22;41205;44.264;19.884;2024-02-16T05:57:38;77.40;2227.20
55329;DHT22;41205;44.264;19.884;2024-02-16T06:00:06;77.40;2227.20
55329;DHT22;41205;44.264;19.884;2024-02-16T06:02:32;77.40;2227.20
55329;DHT22;41205;44.264;19.884;2024-02-16T06:04:59;77.40;2227.20
55329;DHT22;41205;44.264;19.884;2024-02-16T06:07:24;77.40;2227.20
55329;DHT22;41205;44.264;19.884;2024-02-16T06:09:51;77.50;2227.20
55329;DHT22;41205;44.264;19.884;2024-02-16T06:12:17;77.60;2227.20
55329;DHT22;41205;44.264;19.884;2024-02-16T06:14:43;77.70;2227.20
55329;DHT22;41205;44.264;19.884;2024-02-16T06:17:09;102.40;2227.20
55329;DHT22;41205;44.264;19.884;2024-02-16T06:19:37;102.40;2227.20
55329;DHT22;41205;44.264;19.884;2024-02-16T06:22:03;102.50;2227.20
55329;DHT22;41205;44.264;19.884;2024-02-16T06:24:29;102.50;2227.20
55329;DHT22;41205;44.264;19.884;2024-02-16T06:26:55;102.60;2227.20
55329;DHT22;41205;44.264;19.884;2024-02-16T06:29:20;102.60;2227.20
55329;DHT22;41205;44.264;19.884;2024-02-16T06:31:47;102.60;2227.20
55329;DHT22;41205;44.264;19.884;2024-02-16T06:34:15;102.70;2227.20
55329;DHT22;41205;44.264;19.884;2024-02-16T06:36:42;102.70;2227.20
55329;DHT22;41205;44.264;19.884;2024-02-16T06:39:08;102.80;2227.20
55329;DHT22;41205;44.264;19.884;2024-02-16T06:41:35;102.90;2227.20
55329;DHT22;41205;44.264;19.884;2024-02-16T06:44:03;102.90;2227.20
55329;DHT22;41205;44.264;19.884;2024-02-16T06:46:29;102.90;2227.20
55329;DHT22;41205;44.264;19.884;2024-02-16T06:48:55;102.90;2227.20
55329;DHT22;41205;44.264;19.884;2024-02-16T06:51:24;103.00;2227.20
55329;DHT22;41205;44.264;19.884;2024-02-16T06:53:50;103.10;2227.20
55329;DHT22;41205;44.264;19.884;2024-02-16T06:56:17;103.10;2227.20
55329;DHT22;41205;44.264;19.884;2024-02-16T06:58:44;103.10;2227.20
55329;DHT22;41205;44.264;19.884;2024-02-16T07:01:12;103.20;2227.20
55329;DHT22;41205;44.264;19.884;2024-02-16T07:03:37;103.10;2227.20
55329;DHT22;41205;44.264;19.884;2024-02-16T07:06:04;103.20;2227.20
55329;DHT22;41205;44.264;19.884;2024-02-16T07:08:33;103.30;2227.20
55329;DHT22;41205;44.264;19.884;2024-02-16T07:10:58;103.30;2227.20
55329;DHT22;41205;44.264;19.884;2024-02-16T07:13:24;128.10;2252.80
55329;DHT22;41205;44.264;19.884;2024-02-16T07:15:50;128.20;2252.80
55329;DHT22;41205;44.264;19.884;2024-02-16T07:18:16;128.30;2252.80
55329;DHT22;41205;44.264;19.884;2024-02-16T07:20:42;128.40;2252.80
55329;DHT22;41205;44.264;19.884;2024-02-16T07:23:08;128.40;2252.80
55329;DHT22;41205;44.264;19.884;2024-02-16T07:25:36;128.50;2252.80
55329;DHT22;41205;44.264;19.884;2024-02-16T07:28:02;128.60;2252.80
55329;DHT22;41205;44.264;19.884;2024-02-16T07:30:27;128.60;2252.80
55329;DHT22;41205;44.264;19.884;2024-02-16T07:32:53;128.70;2252.80
55329;DHT22;41205;44.264;19.884;2024-02-16T07:35:20;128.80;2252.80
55329;DHT22;41205;44.264;19.884;2024-02-16T07:37:46;128.90;2252.80
55329;DHT22;41205;44.264;19.884;2024-02-16T07:40:13;128.90;2252.80
55329;DHT22;41205;44.264;19.884;2024-02-16T07:42:39;153.60;2252.80
55329;DHT22;41205;44.264;19.884;2024-02-16T07:45:06;153.70;2252.80
55329;DHT22;41205;44.264;19.884;2024-02-16T07:47:32;179.50;2252.80
55329;DHT22;41205;44.264;19.884;2024-02-16T07:49:58;256.80;2252.80
55329;DHT22;41205;44.264;19.884;2024-02-16T07:52:23;307.90;2304.00
55329;DHT22;41205;44.264;19.884;2024-02-16T07:54:49;359.10;2176.00
55329;DHT22;41205;44.264;19.884;2024-02-16T07:57:17;409.70;2048.00
55329;DHT22;41205;44.264;19.884;2024-02-16T07:59:43;435.80;1920.00
55329;DHT22;41205;44.264;19.884;2024-02-16T08:02:09;460.90;1817.60
55329;DHT22;41205;44.264;19.884;2024-02-16T08:04:38;461.40;1792.00
55329;DHT22;41205;44.264;19.884;2024-02-16T08:07:06;512.10;1664.00
55329;DHT22;41205;44.264;19.884;2024-02-16T08:09:32;537.90;1612.80
55329;DHT22;41205;44.264;19.884;2024-02-16T08:11:58;538.50;1587.20
55329;DHT22;41205;44.264;19.884;2024-02-16T08:14:25;563.60;1561.60
55329;DHT22;41205;44.264;19.884;2024-02-16T08:16:51;589.20;1510.40
55329;DHT22;41205;44.264;19.884;2024-02-16T08:26:35;614.80;1408.00
55329;DHT22;41205;44.264;19.884;2024-02-16T08:36:19;589.10;1459.20
55329;DHT22;41205;44.264;19.884;2024-02-16T08:38:46;589.70;1433.60
55329;DHT22;41205;44.264;19.884;2024-02-16T08:41:12;614.70;1408.00
55329;DHT22;41205;44.264;19.884;2024-02-16T08:43:38;640.10;1356.80
55329;DHT22;41205;44.264;19.884;2024-02-16T08:48:33;564.00;1484.80
55329;DHT22;41205;44.264;19.884;2024-02-16T08:50:58;614.50;1433.60
55329;DHT22;41205;44.264;19.884;2024-02-16T08:53:24;614.60;1408.00
55329;DHT22;41205;44.264;19.884;2024-02-16T08:58:16;640.40;1356.80
55329;DHT22;41205;44.264;19.884;2024-02-16T09:00:41;640.70;1331.20
55329;DHT22;41205;44.264;19.884;2024-02-16T09:03:07;640.00;1331.20
55329;DHT22;41205;44.264;19.884;2024-02-16T09:10:27;640.90;1331.20
55329;DHT22;41205;44.264;19.884;2024-02-16T09:12:53;666.00;1331.20
55329;DHT22;41205;44.264;19.884;2024-02-16T09:15:19;691.20;1305.60
55329;DHT22;41205;44.264;19.884;2024-02-16T09:17:44;691.80;1254.40
55329;DHT22;41205;44.264;19.884;2024-02-16T09:20:11;640.40;1331.20
55329;DHT22;41205;44.264;19.884;2024-02-16T09:22:38;666.50;1280.00
55329;DHT22;41205;44.264;19.884;2024-02-16T09:25:04;691.70;1228.80
55329;DHT22;41205;44.264;19.884;2024-02-16T09:27:30;640.40;1331.20
55329;DHT22;41205;44.264;19.884;2024-02-16T09:29:57;589.40;1408.00
55329;DHT22;41205;44.264;19.884;2024-02-16T09:32:22;563.60;1484.80
55329;DHT22;41205;44.264;19.884;2024-02-16T09:34:48;538.10;1484.80
55329;DHT22;41205;44.264;19.884;2024-02-16T09:37:14;538.40;1510.40
55329;DHT22;41205;44.264;19.884;2024-02-16T09:39:41;537.60;1510.40
55329;DHT22;41205;44.264;19.884;2024-02-16T09:42:06;461.50;1638.40
55329;DHT22;41205;44.264;19.884;2024-02-16T09:44:35;461.00;1689.60
55329;DHT22;41205;44.264;19.884;2024-02-16T09:47:02;435.30;1740.80
55329;DHT22;41205;44.264;19.884;2024-02-16T09:49:29;410.00;1792.00
55329;DHT22;41205;44.264;19.884;2024-02-16T09:51:58;384.90;1817.60
55329;DHT22;41205;44.264;19.884;2024-02-16T09:54:25;384.80;1817.60
55329;DHT22;41205;44.264;19.884;2024-02-16T09:56:51;384.90;1817.60
55329;DHT22;41205;44.264;19.884;2024-02-16T09:59:16;384.30;1843.20
55329;DHT22;41205;44.264;19.884;2024-02-16T10:01:42;384.00;1894.40
55329;DHT22;41205;44.264;19.884;2024-02-16T10:04:08;384.10;1894.40
55329;DHT22;41205;44.264;19.884;2024-02-16T10:06:46;384.30;1894.40
55329;DHT22;41205;44.264;19.884;2024-02-16T10:09:25;384.30;1894.40
55329;DHT22;41205;44.264;19.884;2024-02-16T10:11:51;358.80;1945.60
55329;DHT22;41205;44.264;19.884;2024-02-16T10:14:17;359.00;1945.60
55329;DHT22;41205;44.264;19.884;2024-02-16T10:16:48;358.80;1945.60
55329;DHT22;41205;44.264;19.884;2024-02-16T10:19:24;358.90;1945.60
55329;DHT22;41205;44.264;19.884;2024-02-16T10:21:50;359.00;1945.60
55329;DHT22;41205;44.264;19.884;2024-02-16T10:24:21;384.00;1920.00
55329;DHT22;41205;44.264;19.884;2024-02-16T10:26:47;384.20;1920.00
55329;DHT22;41205;44.264;19.884;2024-02-16T10:29:17;384.40;1894.40
55329;DHT22;41205;44.264;19.884;2024-02-16T10:31:45;359.10;1945.60
55329;DHT22;41205;44.264;19.884;2024-02-16T10:34:11;359.10;1945.60
55329;DHT22;41205;44.264;19.884;2024-02-16T10:36:38;359.00;1945.60
55329;DHT22;41205;44.264;19.884;2024-02-16T10:39:05;359.30;1920.00
55329;DHT22;41205;44.264;19.884;2024-02-16T10:41:37;384.10;1894.40
55329;DHT22;41205;44.264;19.884;2024-02-16T10:44:04;384.30;1894.40
55329;DHT22;41205;44.264;19.884;2024-02-16T10:46:31;384.20;1894.40
55329;DHT22;41205;44.264;19.884;2024-02-16T10:48:58;359.30;1894.40
55329;DHT22;41205;44.264;19.884;2024-02-16T10:51:34;359.10;1920.00
55329;DHT22;41205;44.264;19.884;2024-02-16T10:54:07;359.30;1894.40
55329;DHT22;41205;44.264;19.884;2024-02-16T10:56:34;384.30;1894.40
55329;DHT22;41205;44.264;19.884;2024-02-16T10:59:04;359.20;1894.40
55329;DHT22;41205;44.264;19.884;2024-02-16T11:01:48;359.20;1920.00
55329;DHT22;41205;44.264;19.884;2024-02-16T11:04:24;359.30;1894.40
55329;DHT22;41205;44.264;19.884;2024-02-16T11:06:54;359.10;1894.40
55329;DHT22;41205;44.264;19.884;2024-02-16T11:09:37;384.10;1894.40
55329;DHT22;41205;44.264;19.884;2024-02-16T11:12:05;384.30;1920.00
55329;DHT22;41205;44.264;19.884;2024-02-16T11:14:46;384.40;1894.40
55329;DHT22;41205;44.264;19.884;2024-02-16T11:17:15;384.30;1894.40
55329;DHT22;41205;44.264;19.884;2024-02-16T11:19:46;359.30;1894.40
55329;DHT22;41205;44.264;19.884;2024-02-16T11:22:19;384.10;1920.00
55329;DHT22;41205;44.264;19.884;2024-02-16T11:24:49;359.30;1945.60
55329;DHT22;41205;44.264;19.884;2024-02-16T11:27:16;359.00;1945.60
55329;DHT22;41205;44.264;19.884;2024-02-16T11:29:47;384.10;1945.60
55329;DHT22;41205;44.264;19.884;2024-02-16T11:32:13;384.20;1945.60
55329;DHT22;41205;44.264;19.884;2024-02-16T11:34:38;384.10;1920.00
55329;DHT22;41205;44.264;19.884;2024-02-16T11:37:04;384.10;1945.60
55329;DHT22;41205;44.264;19.884;2024-02-16T11:39:31;384.30;1920.00
55329;DHT22;41205;44.264;19.884;2024-02-16T11:42:08;384.40;1920.00
55329;DHT22;41205;44.264;19.884;2024-02-16T11:44:37;384.30;1920.00
55329;DHT22;41205;44.264;19.884;2024-02-16T11:47:06;384.10;1920.00
55329;DHT22;41205;44.264;19.884;2024-02-16T11:49:38;384.30;1945.60
55329;DHT22;41205;44.264;19.884;2024-02-16T11:52:04;384.50;1920.00
55329;DHT22;41205;44.264;19.884;2024-02-16T11:54:30;384.60;1894.40
55329;DHT22;41205;44.264;19.884;2024-02-16T11:56:57;384.80;1894.40
55329;DHT22;41205;44.264;19.884;2024-02-16T11:59:23;384.40;1920.00
55329;DHT22;41205;44.264;19.884;2024-02-16T12:01:54;384.60;1920.00
55329;DHT22;41205;44.264;19.884;2024-02-16T12:04:27;384.40;1894.40
55329;DHT22;41205;44.264;19.884;2024-02-16T12:06:56;384.50;1920.00
55329;DHT22;41205;44.264;19.884;2024-02-16T12:09:23;384.60;1894.40
55329;DHT22;41205;44.264;19.884;2024-02-16T12:11:50;384.60;1894.40
55329;DHT22;41205;44.264;19.884;2024-02-16T12:14:17;384.60;1894.40
55329;DHT22;41205;44.264;19.884;2024-02-16T12:16:47;384.60;1894.40
55329;DHT22;41205;44.264;19.884;2024-02-16T12:19:13;384.80;1894.40
55329;DHT22;41205;44.264;19.884;2024-02-16T12:21:39;384.80;1868.80
55329;DHT22;41205;44.264;19.884;2024-02-16T12:24:08;384.90;1894.40
55329;DHT22;41205;44.264;19.884;2024-02-16T12:26:36;384.80;1868.80
55329;DHT22;41205;44.264;19.884;2024-02-16T12:29:02;384.80;1868.80
55329;DHT22;41205;44.264;19.884;2024-02-16T12:31:27;384.80;1868.80
55329;DHT22;41205;44.264;19.884;2024-02-16T12:33:55;384.80;1843.20
55329;DHT22;41205;44.264;19.884;2024-02-16T12:36:21;384.90;1868.80
55329;DHT22;41205;44.264;19.884;2024-02-16T12:38:49;409.60;1868.80
55329;DHT22;41205;44.264;19.884;2024-02-16T12:41:15;409.60;1868.80
55329;DHT22;41205;44.264;19.884;2024-02-16T12:43:41;384.90;1868.80
55329;DHT22;41205;44.264;19.884;2024-02-16T12:46:07;409.70;1894.40
55329;DHT22;41205;44.264;19.884;2024-02-16T12:48:33;409.70;1868.80
55329;DHT22;41205;44.264;19.884;2024-02-16T12:50:59;409.80;1843.20
55329;DHT22;41205;44.264;19.884;2024-02-16T12:53:25;409.70;1843.20
55329;DHT22;41205;44.264;19.884;2024-02-16T12:55:51;409.70;1843.20
55329;DHT22;41205;44.264;19.884;2024-02-16T12:58:17;409.60;1843.20
55329;DHT22;41205;44.264;19.884;2024-02-16T13:00:42;409.60;1843.20
55329;DHT22;41205;44.264;19.884;2024-02-16T13:03:08;409.80;1843.20
55329;DHT22;41205;44.264;19.884;2024-02-16T13:05:34;409.80;1817.60
55329;DHT22;41205;44.264;19.884;2024-02-16T13:08:00;409.90;1817.60
55329;DHT22;41205;44.264;19.884;2024-02-16T13:10:26;409.70;1817.60
55329;DHT22;41205;44.264;19.884;2024-02-16T13:12:52;409.70;1817.60
55329;DHT22;41205;44.264;19.884;2024-02-16T13:15:18;409.80;1817.60
55329;DHT22;41205;44.264;19.884;2024-02-16T13:17:44;409.60;1792.00
55329;DHT22;41205;44.264;19.884;2024-02-16T13:20:10;409.70;1792.00
55329;DHT22;41205;44.264;19.884;2024-02-16T13:22:36;409.70;1792.00
55329;DHT22;41205;44.264;19.884;2024-02-16T13:25:05;409.60;1766.40
55329;DHT22;41205;44.264;19.884;2024-02-16T13:27:35;409.70;1766.40
55329;DHT22;41205;44.264;19.884;2024-02-16T13:30:00;409.70;1740.80
55329;DHT22;41205;44.264;19.884;2024-02-16T13:32:26;409.90;1766.40
55329;DHT22;41205;44.264;19.884;2024-02-16T13:34:52;409.90;1740.80
55329;DHT22;41205;44.264;19.884;2024-02-16T13:37:18;409.80;1715.20
55329;DHT22;41205;44.264;19.884;2024-02-16T13:39:44;409.70;1715.20
55329;DHT22;41205;44.264;19.884;2024-02-16T13:42:12;409.80;1715.20
55329;DHT22;41205;44.264;19.884;2024-02-16T13:44:39;409.70;1664.00
55329;DHT22;41205;44.264;19.884;2024-02-16T13:47:04;409.80;1664.00
55329;DHT22;41205;44.264;19.884;2024-02-16T13:49:30;409.80;1638.40
55329;DHT22;41205;44.264;19.884;2024-02-16T13:51:56;409.80;1612.80
55329;DHT22;41205;44.264;19.884;2024-02-16T13:54:25;409.80;1587.20
55329;DHT22;41205;44.264;19.884;2024-02-16T13:56:51;409.90;1612.80
55329;DHT22;41205;44.264;19.884;2024-02-16T13:59:16;409.70;1587.20
55329;DHT22;41205;44.264;19.884;2024-02-16T14:01:42;409.70;1587.20
55329;DHT22;41205;44.264;19.884;2024-02-16T14:04:08;409.90;1587.20
55329;DHT22;41205;44.264;19.884;2024-02-16T14:06:34;409.70;1587.20
55329;DHT22;41205;44.264;19.884;2024-02-16T14:09:01;409.70;1587.20
55329;DHT22;41205;44.264;19.884;2024-02-16T14:11:34;409.70;1561.60
55329;DHT22;41205;44.264;19.884;2024-02-16T14:14:01;409.70;1587.20
55329;DHT22;41205;44.264;19.884;2024-02-16T14:16:27;409.70;1561.60
55329;DHT22;41205;44.264;19.884;2024-02-16T14:18:53;409.70;1561.60
55329;DHT22;41205;44.264;19.884;2024-02-16T14:21:19;409.70;1561.60
55329;DHT22;41205;44.264;19.884;2024-02-16T14:23:44;409.70;1561.60
55329;DHT22;41205;44.264;19.884;2024-02-16T14:26:10;409.70;1561.60
55329;DHT22;41205;44.264;19.884;2024-02-16T14:28:37;384.90;1536.00
55329;DHT22;41205;44.264;19.884;2024-02-16T14:31:02;384.90;1510.40
55329;DHT22;41205;44.264;19.884;2024-02-16T14:33:28;384.90;1510.40
55329;DHT22;41205;44.264;19.884;2024-02-16T14:35:54;384.80;1484.80
55329;DHT22;41205;44.264;19.884;2024-02-16T14:38:20;384.90;1510.40
55329;DHT22;41205;44.264;19.884;2024-02-16T14:40:45;384.80;1484.80
55329;DHT22;41205;44.264;19.884;2024-02-16T14:43:11;384.80;1510.40
55329;DHT22;41205;44.264;19.884;2024-02-16T14:45:37;384.70;1510.40
55329;DHT22;41205;44.264;19.884;2024-02-16T14:48:04;384.60;1510.40
55329;DHT22;41205;44.264;19.884;2024-02-16T14:50:30;384.70;1536.00
55329;DHT22;41205;44.264;19.884;2024-02-16T14:52:56;384.70;1536.00
55329;DHT22;41205;44.264;19.884;2024-02-16T14:55:22;384.60;1536.00
55329;DHT22;41205;44.264;19.884;2024-02-16T14:57:48;384.60;1561.60
55329;DHT22;41205;44.264;19.884;2024-02-16T15:00:15;384.60;1561.60